Terminal Aerodrome Forecast
Issued by NWS

Home | Current Version | Previous Version | Text Only | Print | Product List | Glossary On
Versions: 1 2 3 4 5 6 7 8 9 10 11 12 13 14 15 16 17 18 19 20
829
FTUS43 KBIS 140424 AAB
TAFMOT
TAF AMD
KMOT 140424Z 1404/1424 22006KT P6SM BKN019 OVC029
     FM140900 26012KT P6SM BKN040
     FM141300 28015G23KT P6SM OVC045
     FM141500 30017G26KT P6SM OVC020
     FM141600 30018G28KT 5SM BLSN BKN020=

USA.gov is the U.S. government's official web portal to all federal, state and local government web resources and services.